Latest Coastal Weather Observations for Wadeye (Port Keats)

IDD60701

Issued at 7:01 pm CST Saturday 22 February 2020 (issued every 10 minutes, with the page automatically refreshed every 10 minutes)

About coastal observations | Map of coastal stations | Coastal observations for NT | Marine services | Other Formats
Station Details ID: 014948 Name: PORT KEATS AIRPORT Lat: -14.25 Lon: 129.53 Height: 28.0 m
Data from the previous 72 hours. | See also: Recent months at Wadeye (Port Keats)
Date/Time
CST
Wind Sea
Height
m
Swell Vis
km
Cloud Weather Temp
°C
Press
hPa
Rain since
9am
mm
Dir  Spd
kts
Gust
kts
Height
m
Period
s
Dir
22/07:00pm WNW 7 10 - - - - - - - 30.7 1004.8 0.0
22/06:30pm WNW 7 10 - - - - - - - 31.8 1004.7 0.0
22/06:00pm WNW 8 12 - - - - - - - 32.4 1004.3 0.0
22/05:30pm WNW 8 11 - - - - - - - 33.1 1004.4 0.0
22/05:00pm WNW 8 13 - - - - - - - 34.2 1004.3 0.0
22/04:30pm W 7 10 - - - - - - - 34.8 1004.5 0.0
22/04:00pm WNW 7 11 - - - - - - - 34.6 1004.8 0.0
22/03:30pm WNW 8 11 - - - - - - - 34.6 1005.2 0.0
22/03:00pm W 7 10 - - - - - - - 34.2 1005.4 0.0
22/02:30pm W 7 11 - - - - - - - 34.3 1005.7 0.0
22/02:00pm WSW 8 12 - - - - - - - 34.4 1006.0 0.0
22/01:30pm W 6 13 - - - - - - - 33.9 1006.4 0.0
22/01:00pm WSW 8 12 - - - - - - - 34.5 1006.8 0.0
22/12:30pm SSW 5 10 - - - - - - - 34.3 1007.3 0.0
22/12:00pm WSW 7 12 - - - - - - - 33.6 1007.6 0.0
22/11:30am SW 6 11 - - - - - - - 33.1 1008.1 0.0
22/11:00am SW 7 9 - - - - - - - 32.9 1008.4 0.0
22/10:30am SW 7 11 - - - - - - - 32.4 1008.5 0.0
22/10:00am SW 5 7 - - - - - - - 32.2 1008.6 0.0
22/09:30am WSW 4 7 - - - - - - - 31.2 1008.5 0.0
22/09:00am WSW 5 9 - - - - - - - 30.7 1008.5 0.0
22/08:30am WSW 6 10 - - - - - - - 30.6 1008.2 0.0
22/08:00am WSW 4 6 - - - - - - - 30.3 1007.9 0.0
22/07:30am WSW 3 6 - - - - - - - 29.3 1007.4 0.0
22/07:00am W 5 7 - - - - - - - 28.8 1007.3 0.0
22/06:30am W 5 8 - - - - - - - 28.8 1007.4 0.0
22/06:00am W 4 6 - - - - - - - 28.7 1007.3 0.0
22/05:30am WNW 5 9 - - - - - - - 29.0 1007.1 0.0
22/05:00am W 5 9 - - - - - - - 29.0 1006.9 0.0
22/04:30am W 5 10 - - - - - - - 28.7 1006.8 0.0
22/04:00am W 6 10 - - - - - - - 28.8 1006.7 0.0
22/03:30am WNW 7 11 - - - - - - - 28.8 1006.9 0.0
22/03:00am WNW 5 7 - - - - - - - 28.8 1007.2 0.0
22/02:30am WNW 5 8 - - - - - - - 28.7 1007.5 0.0
22/02:00am WNW 4 7 - - - - - - - 28.8 1008.1 0.0
22/01:30am WNW 5 8 - - - - - - - 28.8 1008.5 0.0
22/01:00am WNW 5 8 - - - - - - - 28.7 1008.8 0.0
22/12:30am WNW 5 8 - - - - - - - 28.7 1008.9 0.0
22/12:00am NW 5 7 - - - - - - - 28.6 1009.0 0.0
 
Date/Time
CST
Wind Sea
Height
m
Swell Vis
km
Cloud Weather Temp
°C
Press
hPa
Rain since
9am
mm
Dir  Spd
kts
Gust
kts
Height
m
Period
s
Dir
21/11:30pm NW 5 7 - - - - - - - 28.7 1009.3 0.0
21/11:00pm NW 4 5 - - - - - - - 28.5 1009.4 0.0
21/10:30pm NW 4 6 - - - - - - - 28.6 1009.1 0.0
21/10:00pm NW 5 6 - - - - - - - 28.5 1009.1 0.0
21/09:30pm NW 4 6 - - - - - - - 28.3 1008.7 0.0
21/09:00pm NW 4 5 - - - - - - - 28.5 1008.2 0.0
21/08:30pm WNW 3 6 - - - - - - - 28.6 1008.0 0.0
21/08:00pm NW 3 6 - - - - - - - 28.9 1007.8 0.0
21/07:30pm NW 4 5 - - - - - - - 29.2 1007.3 0.0
21/07:00pm WNW 5 7 - - - - - - - 29.5 1006.8 0.0
21/06:30pm WNW 5 8 - - - - - - - 30.3 1006.3 0.0
21/06:00pm WNW 5 8 - - - - - - - 31.0 1005.9 0.0
21/05:30pm WNW 6 10 - - - - - - - 32.3 1005.6 0.0
21/05:00pm WNW 7 10 - - - - - - - 32.5 1005.6 0.0
21/04:30pm WNW 6 9 - - - - - - - 33.1 1005.7 0.0
21/04:00pm W 5 9 - - - - - - - 33.5 1006.0 0.0
21/03:30pm WNW 5 8 - - - - - - - 33.1 1006.6 0.0
21/03:00pm WNW 7 12 - - - - - - - 33.1 1006.9 0.0
21/02:30pm WSW 7 13 - - - - - - - 32.7 1007.1 0.0
21/02:00pm W 5 8 - - - - - - - 32.6 1007.4 0.0
21/01:30pm SW 5 8 - - - - - - - 32.2 1007.7 0.0
21/01:00pm S 7 9 - - - - - - - 31.9 1008.3 0.0
21/12:30pm SW 6 10 - - - - - - - 31.7 1008.4 0.0
21/12:00pm SSW 7 13 - - - - - - - 31.0 1008.8 0.0
21/11:30am SW 7 11 - - - - - - - 31.1 1009.2 0.0
21/11:00am SW 5 9 - - - - - - - 30.9 1009.5 0.0
21/10:30am SW 5 7 - - - - - - - 30.0 1009.7 0.0
21/10:00am SW 6 9 - - - - - - - 29.7 1009.6 0.0
21/09:30am SSW 4 6 - - - - - - - 29.1 1009.5 0.0
21/09:00am CALM 0 0 - - - - - - - 27.5 1009.4 9.0
21/08:30am CALM 0 0 - - - - - - - 26.7 1009.3 9.0
21/08:00am CALM 0 3 - - - - - - - 25.2 1009.1 9.0
21/07:30am SW 3 4 - - - - - - - 24.6 1009.1 9.0
21/07:00am SW 3 4 - - - - - - - 24.3 1009.2 9.0
21/06:30am CALM 0 3 - - - - - - - 24.5 1009.1 9.0
21/06:00am S 3 5 - - - - - - - 24.4 1009.0 9.0
21/05:30am SSW 3 4 - - - - - - - 24.5 1008.8 9.0
21/05:00am ESE 5 7 - - - - - - - 24.5 1008.6 9.0
21/04:30am CALM 0 0 - - - - - - - 24.8 1008.2 9.0
21/04:00am CALM 0 4 - - - - - - - 24.9 1008.0 9.0
21/03:30am N 5 6 - - - - - - - 25.1 1007.8 9.0
21/03:00am N 5 6 - - - - - - - 24.6 1007.5 9.0
21/02:30am NNE 4 7 - - - - - - - 24.4 1008.2 9.0
21/02:00am N 6 10 - - - - - - - 24.4 1008.6 9.0
21/01:30am NNE 8 11 - - - - - - - 24.2 1009.2 9.0
21/01:00am NNW 7 9 - - - - - - - 23.7 1009.9 9.0
21/12:30am NW 5 7 - - - - - - - 23.5 1010.8 8.8
21/12:00am ESE 5 8 - - - - - - Rain 23.7 1011.3 8.6
 
Date/Time
CST
Wind Sea
Height
m
Swell Vis
km
Cloud Weather Temp
°C
Press
hPa
Rain since
9am
mm
Dir  Spd
kts
Gust
kts
Height
m
Period
s
Dir
20/11:30pm SE 12 23 - - - - - - - 24.3 1011.1 8.2
20/11:26pm E 9 20 - - - - - - - 24.7 1011.0 8.2
20/11:00pm NNE 6 8 - - - - - - - 24.5 1009.3 8.2
20/10:30pm NNE 1 5 - - - - - - - 24.3 1008.6 8.2
20/10:00pm NE 5 8 - - - - - - - 23.7 1008.1 8.2
20/09:30pm NNE 8 10 - - - - - - - 23.5 1008.2 8.2
20/09:00pm N 4 7 - - - - - - Recent precip. 23.0 1008.5 8.2
20/08:30pm NNE 9 12 - - - - - - - 23.2 1008.7 7.8
20/08:00pm NE 2 5 - - - - - - - 23.0 1008.9 7.6
20/07:30pm SE 7 11 - - - - - - - 22.9 1008.7 6.4
20/07:00pm SE 16 22 - - - - - - - 22.6 1008.7 3.8
20/06:46pm SE 24 36 - - - - - - - 23.1 1008.4 0.6
20/06:30pm SSW 10 32 - - - - - - - 28.1 1007.4 0.0
20/06:29pm SSW 7 30 - - - - - - - 29.2 1007.3 0.0
20/06:28pm SW 5 21 - - - - - - - 31.2 1007.0 0.0
20/06:00pm NW 6 8 - - - - - - - 31.4 1005.0 0.0
20/05:30pm NW 8 11 - - - - - - - 31.4 1004.1 0.0
20/05:00pm NW 9 13 - - - - - - - 32.0 1003.7 0.0
20/04:30pm NW 8 13 - - - - - - - 32.1 1003.7 0.0
20/04:00pm NW 9 13 - - - - - - - 32.4 1003.7 0.0
20/03:30pm NW 9 15 - - - - - - - 32.5 1004.1 0.0
20/03:00pm WNW 9 14 - - - - - - - 32.8 1004.9 0.0
20/02:30pm NW 8 14 - - - - - - - 33.8 1005.6 0.0
20/02:00pm WNW 7 10 - - - - - - - 33.6 1006.0 0.0
20/01:30pm WNW 8 12 - - - - - - - 33.3 1006.4 0.0
20/01:00pm WNW 7 11 - - - - - - - 33.1 1006.7 0.0
20/12:30pm WNW 6 10 - - - - - - - 33.5 1007.0 0.0
20/12:00pm WNW 6 11 - - - - - - - 32.9 1007.0 0.0
20/11:30am W 5 8 - - - - - - - 32.9 1007.5 0.0
20/11:00am WNW 6 9 - - - - - - - 31.8 1007.9 0.0
20/10:30am WNW 6 10 - - - - - - - 31.2 1008.3 0.0
20/10:00am WNW 5 8 - - - - - - - 30.7 1008.3 0.0
20/09:30am NW 5 7 - - - - - - - 30.4 1008.1 0.0
20/09:00am WNW 5 8 - - - - - - - 30.2 1007.9 0.2
20/08:30am WNW 3 5 - - - - - - - 29.9 1007.5 0.2
20/08:00am CALM 0 0 - - - - - - - 29.3 1007.3 0.2
20/07:30am CALM 0 0 - - - - - - - 28.6 1007.0 0.2
20/07:00am WNW 3 5 - - - - - - - 28.6 1006.5 0.2
20/06:30am NW 4 5 - - - - - - - 28.8 1006.3 0.2
20/06:00am NW 4 5 - - - - - - - 28.8 1005.9 0.2
20/05:30am N 4 5 - - - - - - - 28.8 1005.8 0.2
20/05:00am NW 3 4 - - - - - - - 28.7 1005.5 0.2
20/04:30am NW 3 4 - - - - - - - 28.7 1005.3 0.2
20/04:00am WNW 4 6 - - - - - - - 28.8 1005.4 0.2
20/03:30am NW 4 6 - - - - - - - 28.9 1005.5 0.2
20/03:00am WNW 4 6 - - - - - - - 28.9 1005.4 0.2
20/02:30am NW 5 9 - - - - - - - 28.9 1005.2 0.2
20/02:00am NW 5 8 - - - - - - - 28.8 1005.2 0.2
20/01:30am NW 5 7 - - - - - - - 28.9 1005.8 0.2
20/01:00am NW 5 8 - - - - - - - 28.9 1006.3 0.2
20/12:30am NW 5 7 - - - - - - - 28.2 1006.5 0.2
20/12:00am NW 2 4 - - - - - - - 27.5 1006.7 0.2
 
Date/Time
CST
Wind Sea
Height
m
Swell Vis
km
Cloud Weather Temp
°C
Press
hPa
Rain since
9am
mm
Dir  Spd
kts
Gust
kts
Height
m
Period
s
Dir
19/11:30pm CALM 0 0 - - - - - - - 28.2 1006.8 0.2
19/11:00pm NNW 3 4 - - - - - - - 27.9 1006.5 0.2
19/10:30pm CALM 0 0 - - - - - - - 27.7 1006.1 0.2
19/10:00pm CALM 0 0 - - - - - - - 27.9 1006.1 0.2
19/09:30pm CALM 0 0 - - - - - - - 28.5 1005.7 0.2
19/09:00pm NW 4 5 - - - - - - - 28.7 1005.6 0.2
19/08:30pm NW 3 5 - - - - - - - 29.2 1005.4 0.2
19/08:00pm NNW 3 5 - - - - - - - 29.6 1005.6 0.2
19/07:30pm WNW 4 5 - - - - - - - 29.6 1004.9 0.2

Other formats

Comma delimited format used in spreadsheet applications
http://www.bom.gov.au/fwo/IDD60701/IDD60701.95111.axf

JavaScript Object Notation format (JSON) in row-major order
http://www.bom.gov.au/fwo/IDD60701/IDD60701.95111.json

Data quality

Most of these data are generated automatically and are frequently updated. Quality checks on data are not normally performed. It is possible for incorrect values to appear. Refer to information at About Latest Weather Observations and please check the disclaimer before using these data.